createdAt,value
2017-12-25T00:00:18.341Z,1017.17
2017-12-25T00:01:27.444Z,1017.19
2017-12-25T00:02:36.275Z,1017.22
2017-12-25T00:03:45.256Z,1017.2
2017-12-25T00:04:54.085Z,1017.03
2017-12-25T00:06:02.910Z,1017.14
2017-12-25T00:07:11.741Z,1017.2
2017-12-25T00:08:20.575Z,1017.11
2017-12-25T00:09:29.400Z,1017.1
2017-12-25T00:10:38.502Z,1017.19
2017-12-25T00:11:47.332Z,1017.17
2017-12-25T00:12:56.162Z,1017.24
2017-12-25T00:14:05.363Z,1017.19
2017-12-25T00:15:14.190Z,1017.19
2017-12-25T00:16:23.020Z,1017.17
2017-12-25T00:17:31.849Z,1017.15
2017-12-25T00:18:40.677Z,1017.16
2017-12-25T00:19:49.656Z,1017.17
2017-12-25T00:20:58.484Z,1017.14
2017-12-25T00:22:07.312Z,1017.19
2017-12-25T00:23:16.142Z,1017.11
2017-12-25T00:24:24.971Z,1017.13
2017-12-25T00:25:33.801Z,1017.09
2017-12-25T00:26:42.631Z,1017.18
2017-12-25T00:27:51.460Z,1017.18
2017-12-25T00:29:00.291Z,1017.09
2017-12-25T00:30:09.472Z,1017.05
2017-12-25T00:31:18.574Z,1017.11
2017-12-25T00:32:27.406Z,1017.13
2017-12-25T00:33:36.238Z,1017.02
2017-12-25T00:34:45.068Z,1017.06
2017-12-25T00:35:53.896Z,1017.01
2017-12-25T00:37:02.727Z,1017.05
2017-12-25T00:38:11.556Z,1017
2017-12-25T00:39:20.386Z,1016.98
2017-12-25T00:40:29.513Z,1017.04
2017-12-25T00:41:38.339Z,1016.99
2017-12-25T00:42:47.168Z,1017.03
2017-12-25T00:43:55.997Z,1017.01
2017-12-25T00:45:04.827Z,1017.01
2017-12-25T00:46:13.659Z,1017.03
2017-12-25T00:47:22.484Z,1017.08
2017-12-25T00:48:31.314Z,1017.02
2017-12-25T00:49:40.148Z,1017.11
2017-12-25T00:50:48.977Z,1017.06
2017-12-25T00:51:57.958Z,1017.07
2017-12-25T00:53:06.784Z,1017.05
2017-12-25T00:54:15.615Z,1017.03
2017-12-25T00:55:24.444Z,1017.04
2017-12-25T00:56:33.275Z,1017.03
2017-12-25T00:57:42.105Z,1017.05
2017-12-25T00:58:50.935Z,1017.06
2017-12-25T00:59:59.766Z,1017.08
2017-12-25T01:01:08.593Z,1017
2017-12-25T01:02:17.422Z,1017.05
2017-12-25T01:03:26.500Z,1017.01
2017-12-25T01:04:35.327Z,1016.97
2017-12-25T01:05:44.156Z,1016.97
2017-12-25T01:06:52.986Z,1016.97
2017-12-25T01:08:01.814Z,1017.05
2017-12-25T01:09:10.644Z,1017.01
2017-12-25T01:10:19.472Z,1017.01
2017-12-25T01:11:28.307Z,1017.02
2017-12-25T01:12:37.152Z,1016.96
2017-12-25T01:13:45.965Z,1016.98
2017-12-25T01:14:54.941Z,1016.96
2017-12-25T01:16:03.772Z,1017.02
2017-12-25T01:17:12.606Z,1016.93
2017-12-25T01:18:21.434Z,1016.95
2017-12-25T01:19:30.262Z,1016.93
2017-12-25T01:20:39.391Z,1016.98
2017-12-25T01:21:48.500Z,1017
2017-12-25T01:22:57.334Z,1016.93
2017-12-25T01:24:06.164Z,1016.98
2017-12-25T01:25:14.993Z,1016.96
2017-12-25T01:26:23.976Z,1016.98
2017-12-25T01:27:32.807Z,1016.98
2017-12-25T01:28:41.636Z,1016.92
2017-12-25T01:29:50.742Z,1016.98
2017-12-25T01:30:59.847Z,1016.99
2017-12-25T01:32:08.829Z,1016.93
2017-12-25T01:33:17.657Z,1016.99
2017-12-25T01:34:26.486Z,1016.93
2017-12-25T01:35:35.590Z,1017.02
2017-12-25T01:36:44.419Z,1017.04
2017-12-25T01:37:53.550Z,1016.99
2017-12-25T01:39:02.378Z,1017.01
2017-12-25T01:40:11.207Z,1016.92
2017-12-25T01:41:20.035Z,1016.96
2017-12-25T01:42:28.864Z,1016.95
2017-12-25T01:43:37.795Z,1017
2017-12-25T01:44:46.621Z,1016.99
2017-12-25T01:45:55.450Z,1016.97
2017-12-25T01:47:04.278Z,1017.02
2017-12-25T01:48:13.108Z,1016.99
2017-12-25T01:49:22.087Z,1016.94
2017-12-25T01:50:30.918Z,1016.97
2017-12-25T01:51:39.747Z,1017.02
2017-12-25T01:52:48.577Z,1016.94
2017-12-25T01:53:57.405Z,1016.93
2017-12-25T01:55:06.386Z,1017
2017-12-25T01:56:15.220Z,1017.06
2017-12-25T01:57:24.044Z,1017.02
2017-12-25T01:58:32.872Z,1017.05
2017-12-25T01:59:41.701Z,1017
2017-12-25T02:00:50.628Z,1017.04
2017-12-25T02:01:59.458Z,1017.09
2017-12-25T02:03:08.284Z,1017.01
2017-12-25T02:04:17.112Z,1017.07
2017-12-25T02:05:25.942Z,1017
2017-12-25T02:06:34.920Z,1016.99
2017-12-25T02:07:44.024Z,1016.97
2017-12-25T02:08:52.851Z,1016.99
2017-12-25T02:10:01.682Z,1016.99
2017-12-25T02:11:10.511Z,1016.95
2017-12-25T02:12:19.340Z,1016.94
2017-12-25T02:13:28.167Z,1016.96
2017-12-25T02:14:36.995Z,1016.94
2017-12-25T02:15:45.824Z,1016.95
2017-12-25T02:16:54.651Z,1016.98
2017-12-25T02:18:03.480Z,1016.94
2017-12-25T02:19:12.311Z,1016.89
2017-12-25T02:20:21.138Z,1016.95
2017-12-25T02:21:29.967Z,1016.86
2017-12-25T02:22:38.800Z,1016.93
2017-12-25T02:23:47.637Z,1016.92
2017-12-25T02:24:56.478Z,1016.81
2017-12-25T02:26:05.575Z,1016.91
2017-12-25T02:27:14.406Z,1016.86
2017-12-25T02:28:23.507Z,1016.86
2017-12-25T02:29:32.485Z,1016.87
2017-12-25T02:30:41.312Z,1016.85
2017-12-25T02:31:50.140Z,1016.78
2017-12-25T02:32:58.969Z,1016.79
2017-12-25T02:34:07.796Z,1016.75
2017-12-25T02:35:16.675Z,1016.72
2017-12-25T02:36:25.782Z,1016.67
2017-12-25T02:37:34.610Z,1016.65
2017-12-25T02:38:43.434Z,1016.63
2017-12-25T02:39:52.545Z,1016.62
2017-12-25T02:41:01.524Z,1016.7
2017-12-25T02:42:10.629Z,1016.62
2017-12-25T02:43:19.456Z,1016.61
2017-12-25T02:44:28.286Z,1016.62
2017-12-25T02:45:37.110Z,1016.6
2017-12-25T02:46:45.988Z,1016.56
2017-12-25T02:47:54.815Z,1016.57
2017-12-25T02:49:03.644Z,1016.48
2017-12-25T02:50:12.471Z,1016.47
2017-12-25T02:51:21.299Z,1016.43
2017-12-25T02:52:30.227Z,1016.48
2017-12-25T02:53:39.053Z,1016.53
2017-12-25T02:54:47.882Z,1016.43
2017-12-25T02:55:56.987Z,1016.39
2017-12-25T02:57:06.101Z,1016.4
2017-12-25T02:58:15.224Z,1016.36
2017-12-25T02:59:24.051Z,1016.36
2017-12-25T03:00:32.880Z,1016.32
2017-12-25T03:01:41.708Z,1016.34
2017-12-25T03:02:50.536Z,1016.34
2017-12-25T03:03:59.363Z,1016.35
2017-12-25T03:05:08.193Z,1016.32
2017-12-25T03:06:17.021Z,1016.34
2017-12-25T03:07:25.849Z,1016.41
2017-12-25T03:08:35.057Z,1016.39
2017-12-25T03:09:44.260Z,1016.29
2017-12-25T03:10:53.087Z,1016.35
2017-12-25T03:12:01.924Z,1016.4
2017-12-25T03:13:11.093Z,1016.38
2017-12-25T03:14:19.922Z,1016.34
2017-12-25T03:15:28.906Z,1016.31
2017-12-25T03:16:37.736Z,1016.35
2017-12-25T03:17:46.563Z,1016.35
2017-12-25T03:18:55.391Z,1016.37
2017-12-25T03:20:04.222Z,1016.37
2017-12-25T03:21:13.351Z,1016.36
2017-12-25T03:22:22.180Z,1016.37
2017-12-25T03:23:31.010Z,1016.36
2017-12-25T03:24:39.836Z,1016.37
2017-12-25T03:25:48.665Z,1016.33
2017-12-25T03:26:57.643Z,1016.37
2017-12-25T03:28:06.744Z,1016.31
2017-12-25T03:29:15.572Z,1016.36
2017-12-25T03:30:24.677Z,1016.32
2017-12-25T03:31:33.505Z,1016.33
2017-12-25T03:32:42.333Z,1016.32
2017-12-25T03:33:51.162Z,1016.32
2017-12-25T03:34:59.989Z,1016.29
2017-12-25T03:36:08.817Z,1016.36
2017-12-25T03:37:17.646Z,1016.28
2017-12-25T03:38:26.476Z,1016.3
2017-12-25T03:39:35.306Z,1016.26
2017-12-25T03:40:44.133Z,1016.29
2017-12-25T03:41:52.959Z,1016.3
2017-12-25T03:43:01.788Z,1016.31
2017-12-25T03:44:10.616Z,1016.24
2017-12-25T03:45:19.448Z,1016.24
2017-12-25T03:46:28.277Z,1016.21
2017-12-25T03:47:37.381Z,1016.18
2017-12-25T03:48:46.210Z,1016.2
2017-12-25T03:49:55.037Z,1016.16
2017-12-25T03:51:03.867Z,1016.21
2017-12-25T03:52:12.696Z,1016.17
2017-12-25T03:53:21.524Z,1016.16
2017-12-25T03:54:30.372Z,1016.14
2017-12-25T03:55:39.331Z,1016.2
2017-12-25T03:56:48.210Z,1016.18
2017-12-25T03:57:57.037Z,1016.19
2017-12-25T03:59:05.874Z,1016.16
2017-12-25T04:00:14.698Z,1016.15
2017-12-25T04:01:23.824Z,1016.17
2017-12-25T04:02:32.931Z,1016.15
2017-12-25T04:03:42.028Z,1016.14
2017-12-25T04:04:50.856Z,1016.16
2017-12-25T04:05:59.684Z,1016.12
2017-12-25T04:07:08.515Z,1016.01
2017-12-25T04:08:17.343Z,1016.13
2017-12-25T04:09:26.174Z,1016.06
2017-12-25T04:10:35.002Z,1016.07
2017-12-25T04:11:43.827Z,1016.07
2017-12-25T04:12:52.956Z,1016.06
2017-12-25T04:14:01.782Z,1016.07
2017-12-25T04:15:10.612Z,1016
2017-12-25T04:16:19.438Z,1016.04
2017-12-25T04:17:28.266Z,1016.03
2017-12-25T04:18:37.247Z,1016
2017-12-25T04:19:46.076Z,1015.98
2017-12-25T04:20:54.905Z,1015.92
2017-12-25T04:22:04.007Z,1015.99
2017-12-25T04:23:12.834Z,1016.03
2017-12-25T04:24:21.662Z,1016.02
2017-12-25T04:25:30.490Z,1015.93
2017-12-25T04:26:39.320Z,1015.94
2017-12-25T04:27:48.699Z,1015.93
2017-12-25T04:28:57.529Z,1015.9
2017-12-25T04:30:06.511Z,1015.86
2017-12-25T04:31:15.347Z,1015.89
2017-12-25T04:32:24.167Z,1015.87
2017-12-25T04:33:32.995Z,1015.87
2017-12-25T04:34:41.825Z,1015.88
2017-12-25T04:35:50.803Z,1015.84
2017-12-25T04:36:59.630Z,1015.96
2017-12-25T04:38:08.460Z,1015.88
2017-12-25T04:39:17.287Z,1015.97
2017-12-25T04:40:26.115Z,1015.92
2017-12-25T04:41:35.372Z,1015.86
2017-12-25T04:42:44.198Z,1015.93
2017-12-25T04:43:53.025Z,1015.89
2017-12-25T04:45:01.853Z,1015.89
2017-12-25T04:46:10.731Z,1015.87
2017-12-25T04:47:20.081Z,1015.87
2017-12-25T04:48:28.909Z,1015.8
2017-12-25T04:49:37.735Z,1015.82
2017-12-25T04:50:46.565Z,1015.79
2017-12-25T04:51:55.391Z,1015.87
2017-12-25T04:53:04.270Z,1015.83
2017-12-25T04:54:13.099Z,1015.82
2017-12-25T04:55:21.935Z,1015.85
2017-12-25T04:56:30.759Z,1015.87
2017-12-25T04:57:39.588Z,1015.73
2017-12-25T04:58:48.517Z,1015.75
2017-12-25T04:59:57.344Z,1015.77
2017-12-25T05:01:06.174Z,1015.71
2017-12-25T05:02:15.004Z,1015.67
2017-12-25T05:03:23.831Z,1015.7
2017-12-25T05:04:32.658Z,1015.68
2017-12-25T05:05:41.486Z,1015.65
2017-12-25T05:06:50.313Z,1015.63
2017-12-25T05:07:59.140Z,1015.72
2017-12-25T05:09:07.970Z,1015.61
2017-12-25T05:10:16.897Z,1015.61
2017-12-25T05:11:25.724Z,1015.58
2017-12-25T05:12:34.552Z,1015.55
2017-12-25T05:13:43.384Z,1015.58
2017-12-25T05:14:52.211Z,1015.54
2017-12-25T05:16:01.139Z,1015.59
2017-12-25T05:17:09.970Z,1015.56
2017-12-25T05:18:18.795Z,1015.5
2017-12-25T05:19:27.625Z,1015.56
2017-12-25T05:20:36.454Z,1015.52
2017-12-25T05:21:45.333Z,1015.44
2017-12-25T05:22:54.162Z,1015.51
2017-12-25T05:24:02.988Z,1015.47
2017-12-25T05:25:11.815Z,1015.5
2017-12-25T05:26:20.641Z,1015.5
2017-12-25T05:27:29.870Z,1015.47
2017-12-25T05:28:38.705Z,1015.38
2017-12-25T05:29:47.805Z,1015.43
2017-12-25T05:30:56.634Z,1015.35
2017-12-25T05:32:05.461Z,1015.41
2017-12-25T05:33:14.590Z,1015.4
2017-12-25T05:34:23.419Z,1015.36
2017-12-25T05:35:32.244Z,1015.28
2017-12-25T05:36:41.074Z,1015.29
2017-12-25T05:37:49.900Z,1015.34
2017-12-25T05:38:58.977Z,1015.34
2017-12-25T05:40:08.082Z,1015.36
2017-12-25T05:41:16.910Z,1015.27
2017-12-25T05:42:25.740Z,1015.34
2017-12-25T05:43:34.568Z,1015.26
2017-12-25T05:44:43.545Z,1015.34
2017-12-25T05:45:52.650Z,1015.36
2017-12-25T05:47:01.479Z,1015.3
2017-12-25T05:48:10.306Z,1015.24
2017-12-25T05:49:19.137Z,1015.37
2017-12-25T05:50:27.961Z,1015.33
2017-12-25T05:51:36.790Z,1015.37
2017-12-25T05:52:45.617Z,1015.41
2017-12-25T05:53:54.446Z,1015.41
2017-12-25T05:55:03.277Z,1015.38
2017-12-25T05:56:12.355Z,1015.39
2017-12-25T05:57:21.186Z,1015.37
2017-12-25T05:58:30.017Z,1015.34
2017-12-25T05:59:38.844Z,1015.4
2017-12-25T06:00:47.671Z,1015.38
2017-12-25T06:01:56.500Z,1015.36
2017-12-25T06:03:05.329Z,1015.29
2017-12-25T06:04:14.154Z,1015.29
2017-12-25T06:05:22.982Z,1015.3
2017-12-25T06:06:31.810Z,1015.36
2017-12-25T06:07:40.688Z,1015.35
2017-12-25T06:08:49.519Z,1015.33
2017-12-25T06:09:58.348Z,1015.36
2017-12-25T06:11:07.176Z,1015.28
2017-12-25T06:12:16.006Z,1015.35
2017-12-25T06:13:25.233Z,1015.32
2017-12-25T06:14:34.063Z,1015.31
2017-12-25T06:15:42.893Z,1015.29
2017-12-25T06:16:51.724Z,1015.25
2017-12-25T06:18:00.550Z,1015.3
2017-12-25T06:19:09.431Z,1015.29
2017-12-25T06:20:18.539Z,1015.26
2017-12-25T06:21:27.365Z,1015.26
2017-12-25T06:22:36.190Z,1015.34
2017-12-25T06:23:45.018Z,1015.28
2017-12-25T06:24:53.845Z,1015.19
2017-12-25T06:26:02.673Z,1015.22
2017-12-25T06:27:11.503Z,1015.22
2017-12-25T06:28:20.332Z,1015.22
2017-12-25T06:29:29.165Z,1015.21
2017-12-25T06:30:38.092Z,1015.22
2017-12-25T06:31:46.921Z,1015.12
2017-12-25T06:32:55.753Z,1015.19
2017-12-25T06:34:04.584Z,1015.23
2017-12-25T06:35:13.411Z,1015.2
2017-12-25T06:36:22.238Z,1015.13
2017-12-25T06:37:31.067Z,1015.17
2017-12-25T06:38:39.953Z,1015.15
2017-12-25T06:39:48.781Z,1015.14
2017-12-25T06:40:57.604Z,1015.16
2017-12-25T06:42:06.538Z,1015.14
2017-12-25T06:43:15.640Z,1015.08
2017-12-25T06:44:24.466Z,1015.1
2017-12-25T06:45:33.332Z,1015.12
2017-12-25T06:46:42.125Z,1015.06
2017-12-25T06:47:51.021Z,1015
2017-12-25T06:48:59.833Z,1015.05
2017-12-25T06:50:08.665Z,1015.03
2017-12-25T06:51:17.496Z,1015.02
2017-12-25T06:52:26.326Z,1014.97
2017-12-25T06:53:35.454Z,1014.92
2017-12-25T06:54:44.283Z,1014.92
2017-12-25T06:55:53.115Z,1014.84
2017-12-25T06:57:01.946Z,1014.86
2017-12-25T06:58:10.775Z,1014.83
2017-12-25T06:59:19.754Z,1014.86
2017-12-25T07:00:28.587Z,1014.91
2017-12-25T07:01:37.414Z,1014.87
2017-12-25T07:02:46.242Z,1014.85
2017-12-25T07:03:55.072Z,1014.82
2017-12-25T07:05:03.902Z,1014.86
2017-12-25T07:06:12.731Z,1014.83
2017-12-25T07:07:21.607Z,1014.83
2017-12-25T07:08:30.436Z,1014.82
2017-12-25T07:09:39.266Z,1014.88
2017-12-25T07:10:48.369Z,1014.79
2017-12-25T07:11:57.198Z,1014.8
2017-12-25T07:13:06.029Z,1014.76
2017-12-25T07:14:14.860Z,1014.9
2017-12-25T07:15:23.691Z,1014.87
2017-12-25T07:16:33.049Z,1014.86
2017-12-25T07:17:41.880Z,1014.91
2017-12-25T07:18:50.708Z,1014.82
2017-12-25T07:19:59.537Z,1014.82
2017-12-25T07:21:08.366Z,1014.83
2017-12-25T07:22:17.343Z,1014.83
2017-12-25T07:23:26.173Z,1014.76
2017-12-25T07:24:35.012Z,1014.8
2017-12-25T07:25:43.833Z,1014.88
2017-12-25T07:26:52.660Z,1014.91
2017-12-25T07:28:01.590Z,1014.89
2017-12-25T07:29:10.420Z,1014.87
2017-12-25T07:30:19.524Z,1014.89
2017-12-25T07:31:28.353Z,1014.94
2017-12-25T07:32:37.183Z,1014.93
2017-12-25T07:33:46.161Z,1014.87
2017-12-25T07:34:54.989Z,1014.88
2017-12-25T07:36:04.155Z,1014.89
2017-12-25T07:37:12.925Z,1014.97
2017-12-25T07:38:21.755Z,1014.89
2017-12-25T07:39:30.686Z,1014.9
2017-12-25T07:40:39.515Z,1014.94
2017-12-25T07:41:48.342Z,1014.87
2017-12-25T07:42:57.174Z,1014.92
2017-12-25T07:44:06.280Z,1014.94
2017-12-25T07:45:15.112Z,1014.96
2017-12-25T07:46:23.942Z,1014.96
2017-12-25T07:47:32.770Z,1014.93
2017-12-25T07:48:41.599Z,1014.96
2017-12-25T07:49:50.428Z,1014.98
2017-12-25T07:50:59.257Z,1015.02
2017-12-25T07:52:08.094Z,1015.02
2017-12-25T07:53:16.917Z,1014.92
2017-12-25T07:54:25.748Z,1014.98
2017-12-25T07:55:34.576Z,1014.99
2017-12-25T07:56:43.662Z,1014.91
2017-12-25T07:57:52.489Z,1014.97
2017-12-25T07:59:01.318Z,1014.99
2017-12-25T08:00:10.148Z,1014.98
2017-12-25T08:01:18.982Z,1015.03
2017-12-25T08:02:27.962Z,1014.98
2017-12-25T08:03:36.795Z,1014.98
2017-12-25T08:04:45.621Z,1015.04
2017-12-25T08:05:54.445Z,1014.92
2017-12-25T08:07:03.273Z,1014.9
2017-12-25T08:08:12.255Z,1014.91
2017-12-25T08:09:21.368Z,1014.94
2017-12-25T08:10:30.198Z,1014.97
2017-12-25T08:11:39.027Z,1014.99
2017-12-25T08:12:48.148Z,1014.94
2017-12-25T08:13:56.986Z,1014.98
2017-12-25T08:15:06.086Z,1015.02
2017-12-25T08:16:14.916Z,1014.95
2017-12-25T08:17:23.748Z,1014.94
2017-12-25T08:18:32.576Z,1014.95
2017-12-25T08:19:41.455Z,1014.97
2017-12-25T08:20:50.286Z,1015.01
2017-12-25T08:21:59.117Z,1015.02
2017-12-25T08:23:07.945Z,1015.01
2017-12-25T08:24:16.776Z,1015.01
2017-12-25T08:25:25.605Z,1014.97
2017-12-25T08:26:34.434Z,1015.05
2017-12-25T08:27:43.313Z,1015.01
2017-12-25T08:28:52.150Z,1015.02
2017-12-25T08:30:01.028Z,1015.02
2017-12-25T08:31:10.077Z,1015
2017-12-25T08:32:18.906Z,1015.05
2017-12-25T08:33:27.734Z,1015.02
2017-12-25T08:34:36.661Z,1015.02
2017-12-25T08:35:45.492Z,1015
2017-12-25T08:36:54.595Z,1015
2017-12-25T08:38:03.425Z,1015.02
2017-12-25T08:39:12.255Z,1015.07
2017-12-25T08:40:21.086Z,1015
2017-12-25T08:41:29.919Z,1015.03
2017-12-25T08:42:38.898Z,1014.98
2017-12-25T08:43:47.728Z,1015.07
2017-12-25T08:44:56.559Z,1014.96
2017-12-25T08:46:05.669Z,1015
2017-12-25T08:47:14.497Z,1014.99
2017-12-25T08:48:23.707Z,1014.99
2017-12-25T08:49:32.536Z,1014.94
2017-12-25T08:50:41.367Z,1014.93
2017-12-25T08:51:50.197Z,1014.95
2017-12-25T08:52:59.299Z,1014.95
2017-12-25T08:54:08.278Z,1015.01
2017-12-25T08:55:17.153Z,1015.02
2017-12-25T08:56:25.940Z,1015.03
2017-12-25T08:57:34.768Z,1014.93
2017-12-25T08:58:43.597Z,1014.97
2017-12-25T08:59:52.579Z,1014.97
2017-12-25T09:01:01.409Z,1014.99
2017-12-25T09:02:10.236Z,1015
2017-12-25T09:03:19.066Z,1015.02
2017-12-25T09:04:27.894Z,1014.98
2017-12-25T09:05:36.874Z,1014.96
2017-12-25T09:06:45.702Z,1014.92
2017-12-25T09:07:54.536Z,1014.95
2017-12-25T09:09:03.368Z,1014.9
2017-12-25T09:10:12.196Z,1014.91
2017-12-25T09:11:21.026Z,1014.95
2017-12-25T09:12:29.855Z,1014.87
2017-12-25T09:13:38.710Z,1014.98
2017-12-25T09:14:47.540Z,1014.9
2017-12-25T09:15:56.372Z,1014.95
2017-12-25T09:17:05.631Z,1014.97
2017-12-25T09:18:14.786Z,1014.97
2017-12-25T09:19:23.617Z,1014.95
2017-12-25T09:20:32.447Z,1015.11
2017-12-25T09:21:41.276Z,1015.03
2017-12-25T09:22:50.104Z,1015.01
2017-12-25T09:23:58.938Z,1015.07
2017-12-25T09:25:08.042Z,1015.04
2017-12-25T09:26:16.872Z,1015.01
2017-12-25T09:27:25.706Z,1015.05
2017-12-25T09:28:34.588Z,1014.97
2017-12-25T09:29:43.696Z,1015.02
2017-12-25T09:30:52.528Z,1014.97
2017-12-25T09:32:01.362Z,1015
2017-12-25T09:33:10.401Z,1015.08
2017-12-25T09:34:19.362Z,1015.06
2017-12-25T09:35:28.206Z,1015.06
2017-12-25T09:36:37.366Z,1015.05
2017-12-25T09:37:46.208Z,1015.07
2017-12-25T09:38:55.060Z,1015.18
2017-12-25T09:40:03.894Z,1015.08
2017-12-25T09:41:12.727Z,1015.09
2017-12-25T09:42:21.555Z,1015.03
2017-12-25T09:43:30.383Z,1015.03
2017-12-25T09:44:39.213Z,1015.04
2017-12-25T09:45:48.343Z,1015.04
2017-12-25T09:46:57.174Z,1015
2017-12-25T09:48:06.002Z,1014.97
2017-12-25T09:49:14.832Z,1014.94
2017-12-25T09:50:23.663Z,1014.91
2017-12-25T09:51:32.496Z,1014.94
2017-12-25T09:52:41.488Z,1014.9
2017-12-25T09:53:50.330Z,1014.9
2017-12-25T09:54:59.169Z,1014.94
2017-12-25T09:56:08.011Z,1014.88
2017-12-25T09:57:16.948Z,1014.89
2017-12-25T09:58:25.778Z,1014.91
2017-12-25T09:59:34.909Z,1014.94
2017-12-25T10:00:43.739Z,1014.87
2017-12-25T10:01:52.567Z,1014.88
2017-12-25T10:03:01.498Z,1014.95
2017-12-25T10:04:10.327Z,1014.85
2017-12-25T10:05:19.159Z,1014.8
2017-12-25T10:06:27.993Z,1014.79
2017-12-25T10:07:37.095Z,1014.85
2017-12-25T10:08:45.928Z,1014.86
2017-12-25T10:09:54.756Z,1014.75
2017-12-25T10:11:03.588Z,1014.7
2017-12-25T10:12:12.413Z,1014.74
2017-12-25T10:13:21.242Z,1014.7
2017-12-25T10:14:30.074Z,1014.74
2017-12-25T10:15:38.902Z,1014.8
2017-12-25T10:16:47.733Z,1014.74
2017-12-25T10:17:56.841Z,1014.7
2017-12-25T10:19:05.672Z,1014.65
2017-12-25T10:20:14.504Z,1014.79
2017-12-25T10:21:23.334Z,1014.66
2017-12-25T10:22:32.438Z,1014.77
2017-12-25T10:23:41.268Z,1014.64
2017-12-25T10:24:50.097Z,1014.55
2017-12-25T10:25:58.927Z,1014.57
2017-12-25T10:27:07.755Z,1014.68
2017-12-25T10:28:16.585Z,1014.54
2017-12-25T10:29:25.416Z,1014.61
2017-12-25T10:30:34.248Z,1014.59
2017-12-25T10:31:43.078Z,1014.48
2017-12-25T10:32:51.905Z,1014.6
2017-12-25T10:34:00.934Z,1014.49
2017-12-25T10:35:09.764Z,1014.49
2017-12-25T10:36:18.594Z,1014.56
2017-12-25T10:37:27.423Z,1014.57
2017-12-25T10:38:36.254Z,1014.59
2017-12-25T10:39:45.360Z,1014.5
2017-12-25T10:40:54.193Z,1014.53
2017-12-25T10:42:03.030Z,1014.51
2017-12-25T10:43:11.857Z,1014.47
2017-12-25T10:44:20.690Z,1014.49
2017-12-25T10:45:29.570Z,1014.5
2017-12-25T10:46:38.397Z,1014.48
2017-12-25T10:47:47.228Z,1014.42
2017-12-25T10:48:56.061Z,1014.41
2017-12-25T10:50:04.889Z,1014.55
2017-12-25T10:51:13.721Z,1014.44
2017-12-25T10:52:22.830Z,1014.33
2017-12-25T10:53:31.661Z,1014.39
2017-12-25T10:54:40.491Z,1014.3
2017-12-25T10:55:49.322Z,1014.49
2017-12-25T10:56:58.206Z,1014.34
2017-12-25T10:58:07.033Z,1014.2
2017-12-25T10:59:15.867Z,1014.32
2017-12-25T11:00:24.701Z,1014.27
2017-12-25T11:01:33.531Z,1014.24
2017-12-25T11:02:42.513Z,1014.18
2017-12-25T11:03:51.343Z,1014.18
2017-12-25T11:05:00.175Z,1014.18
2017-12-25T11:06:09.003Z,1014.22
2017-12-25T11:07:17.835Z,1014.13
2017-12-25T11:08:26.667Z,1014.2
2017-12-25T11:09:35.777Z,1014.16
2017-12-25T11:10:44.607Z,1014.13
2017-12-25T11:11:53.439Z,1014.25
2017-12-25T11:13:02.271Z,1014.25
2017-12-25T11:14:11.102Z,1014.11
2017-12-25T11:15:19.933Z,1014.12
2017-12-25T11:16:28.763Z,1014.12
2017-12-25T11:17:37.592Z,1014.07
2017-12-25T11:18:46.425Z,1014.05
2017-12-25T11:19:55.367Z,1014.05
2017-12-25T11:21:04.196Z,1014.02
2017-12-25T11:22:13.029Z,1014.07
2017-12-25T11:23:21.858Z,1014.09
2017-12-25T11:24:30.693Z,1013.98
2017-12-25T11:25:40.095Z,1013.99
2017-12-25T11:26:48.926Z,1014
2017-12-25T11:27:57.759Z,1014
2017-12-25T11:29:06.922Z,1014
2017-12-25T11:30:15.697Z,1014.03
2017-12-25T11:31:24.906Z,1014
2017-12-25T11:32:33.734Z,1013.97
2017-12-25T11:33:42.563Z,1013.94
2017-12-25T11:34:51.393Z,1013.92
2017-12-25T11:36:00.222Z,1013.82
2017-12-25T11:37:09.204Z,1013.79
2017-12-25T11:38:18.033Z,1013.83
2017-12-25T11:39:26.866Z,1013.88
2017-12-25T11:40:35.699Z,1013.8
2017-12-25T11:41:44.525Z,1013.82
2017-12-25T11:42:53.408Z,1013.78
2017-12-25T11:44:02.237Z,1013.76
2017-12-25T11:45:11.067Z,1013.78
2017-12-25T11:46:19.897Z,1013.71
2017-12-25T11:47:28.738Z,1013.69
2017-12-25T11:48:38.169Z,1013.71
2017-12-25T11:49:47.001Z,1013.7
2017-12-25T11:50:55.832Z,1013.71
2017-12-25T11:52:04.662Z,1013.71
2017-12-25T11:53:13.490Z,1013.69
2017-12-25T11:54:22.469Z,1013.63
2017-12-25T11:55:31.301Z,1013.58
2017-12-25T11:56:40.134Z,1013.6
2017-12-25T11:57:48.963Z,1013.68
2017-12-25T11:58:57.795Z,1013.57
2017-12-25T12:00:06.927Z,1013.64
2017-12-25T12:01:16.028Z,1013.52
2017-12-25T12:02:24.864Z,1013.48
2017-12-25T12:03:33.699Z,1013.51
2017-12-25T12:04:42.807Z,1013.46
2017-12-25T12:05:51.962Z,1013.46
2017-12-25T12:07:00.792Z,1013.36
2017-12-25T12:08:09.623Z,1013.42
2017-12-25T12:09:18.459Z,1013.38
2017-12-25T12:10:27.281Z,1013.34
2017-12-25T12:11:36.110Z,1013.4
2017-12-25T12:12:44.941Z,1013.36
2017-12-25T12:13:53.771Z,1013.33
2017-12-25T12:15:02.607Z,1013.3
2017-12-25T12:16:11.432Z,1013.38
2017-12-25T12:17:20.566Z,1013.28
2017-12-25T12:18:29.666Z,1013.32
2017-12-25T12:19:38.494Z,1013.22
2017-12-25T12:20:47.601Z,1013.28
2017-12-25T12:21:56.432Z,1013.26
2017-12-25T12:23:05.534Z,1013.22
2017-12-25T12:24:14.366Z,1013.27
2017-12-25T12:25:23.200Z,1013.29
2017-12-25T12:26:32.031Z,1013.32
2017-12-25T12:27:40.859Z,1013.23
2017-12-25T12:28:49.788Z,1013.2
2017-12-25T12:29:58.901Z,1013.29
2017-12-25T12:31:07.732Z,1013.07
2017-12-25T12:32:16.561Z,1013.12
2017-12-25T12:33:25.396Z,1013.12
2017-12-25T12:34:34.524Z,1013.19
2017-12-25T12:35:43.353Z,1013.11
2017-12-25T12:36:52.184Z,1013.2
2017-12-25T12:38:01.017Z,1013.18
2017-12-25T12:39:09.847Z,1013.19
2017-12-25T12:40:18.826Z,1013.22
2017-12-25T12:41:27.653Z,1013.21
2017-12-25T12:42:36.484Z,1013.16
2017-12-25T12:43:45.314Z,1013.07
2017-12-25T12:44:54.146Z,1013.15
2017-12-25T12:46:03.134Z,1013.16
2017-12-25T12:47:11.957Z,1013.15
2017-12-25T12:48:20.785Z,1013.1
2017-12-25T12:49:29.616Z,1013.1
2017-12-25T12:50:38.445Z,1013.05
2017-12-25T12:51:47.329Z,1013.18
2017-12-25T12:52:56.261Z,1013.16
2017-12-25T12:54:05.376Z,1013.04
2017-12-25T12:55:14.206Z,1013.2
2017-12-25T12:56:23.036Z,1013.12
2017-12-25T12:57:31.964Z,1013
2017-12-25T12:58:40.793Z,1013.02
2017-12-25T12:59:49.624Z,1012.95
2017-12-25T13:00:58.516Z,1012.98
2017-12-25T13:02:07.347Z,1012.96
2017-12-25T13:03:16.428Z,1012.97
2017-12-25T13:04:25.259Z,1012.99
2017-12-25T13:05:34.088Z,1012.89
2017-12-25T13:06:42.920Z,1012.78
2017-12-25T13:07:51.751Z,1012.86
2017-12-25T13:09:00.590Z,1012.86
2017-12-25T13:10:09.418Z,1012.84
2017-12-25T13:11:18.249Z,1012.88
2017-12-25T13:12:27.078Z,1012.77
2017-12-25T13:13:35.910Z,1012.76
2017-12-25T13:14:44.889Z,1012.78
2017-12-25T13:15:53.720Z,1012.72
2017-12-25T13:17:02.549Z,1012.66
2017-12-25T13:18:11.378Z,1012.67
2017-12-25T13:19:20.210Z,1012.65
2017-12-25T13:20:29.138Z,1012.75
2017-12-25T13:21:37.970Z,1012.75
2017-12-25T13:22:46.805Z,1012.7
2017-12-25T13:23:55.634Z,1012.62
2017-12-25T13:25:04.464Z,1012.63
2017-12-25T13:26:13.394Z,1012.81
2017-12-25T13:27:22.227Z,1012.63
2017-12-25T13:28:31.333Z,1012.61
2017-12-25T13:29:40.162Z,1012.6
2017-12-25T13:30:48.994Z,1012.6
2017-12-25T13:31:57.925Z,1012.51
2017-12-25T13:33:07.306Z,1012.52
2017-12-25T13:34:16.135Z,1012.53
2017-12-25T13:35:24.967Z,1012.51
2017-12-25T13:36:33.795Z,1012.59
2017-12-25T13:37:42.777Z,1012.61
2017-12-25T13:38:51.643Z,1012.6
2017-12-25T13:40:00.437Z,1012.5
2017-12-25T13:41:09.540Z,1012.51
2017-12-25T13:42:18.371Z,1012.53
2017-12-25T13:43:27.301Z,1012.43
2017-12-25T13:44:36.152Z,1012.45
2017-12-25T13:45:44.982Z,1012.44
2017-12-25T13:46:53.811Z,1012.41
2017-12-25T13:48:02.639Z,1012.36
2017-12-25T13:49:11.618Z,1012.45
2017-12-25T13:50:20.451Z,1012.47
2017-12-25T13:51:29.562Z,1012.44
2017-12-25T13:52:38.396Z,1012.42
2017-12-25T13:53:47.225Z,1012.41
2017-12-25T13:54:56.358Z,1012.43
2017-12-25T13:56:05.189Z,1012.43
2017-12-25T13:57:14.024Z,1012.4